Time;durP1;ratioP1;P1;durP2;ratioP2;P2;SDS_P1;SDS_P2;PMS_P1;PMS_P2;Temp;Humidity;BMP_temperature;BMP_pressure;BME280_temperature;BME280_humidity;BME280_pressure;Samples;Min_cycle;Max_cycle;Signal;HPM_P1;HPM_P2
2023/11/26 00:00:33;;;;;;;2.70;1.70;;;;;;;0.20;92.98;100267.06;5031678;28;20203;-73
2023/11/26 00:02:59;;;;;;;2.83;1.70;;;;;;;0.19;93.42;100275.09;5022599;28;20675;-73
2023/11/26 00:05:25;;;;;;;3.13;1.73;;;;;;;0.18;93.37;100274.34;5024039;28;20629;-73
2023/11/26 00:07:52;;;;;;;2.73;1.77;;;;;;;0.16;92.87;100280.84;5028301;28;20216;-74
2023/11/26 00:10:18;;;;;;;2.30;1.70;;;;;;;0.12;92.94;100283.16;5028049;28;20275;-73
2023/11/26 00:12:45;;;;;;;2.67;1.77;;;;;;;0.08;93.01;100276.97;5026426;28;20685;-73
2023/11/26 00:15:13;;;;;;;4.67;2.33;;;;;;;0.04;92.71;100288.13;5044653;28;20557;-73
2023/11/26 00:17:41;;;;;;;3.07;2.00;;;;;;;-0.05;92.87;100285.28;5022197;28;20605;-74
2023/11/26 00:20:09;;;;;;;2.23;1.80;;;;;;;-0.12;93.10;100277.00;5027471;28;20201;-73
2023/11/26 00:22:36;;;;;;;2.60;1.70;;;;;;;-0.17;93.36;100278.06;5025620;28;20200;-73
2023/11/26 00:25:02;;;;;;;2.50;1.60;;;;;;;-0.24;93.69;100280.91;5025553;28;20212;-73
2023/11/26 00:27:28;;;;;;;2.20;1.60;;;;;;;-0.29;93.55;100288.69;5039943;28;20200;-73
2023/11/26 00:29:56;;;;;;;3.77;1.97;;;;;;;-0.33;93.75;100289.50;5044664;28;20196;-74
2023/11/26 00:32:22;;;;;;;2.83;1.90;;;;;;;-0.35;94.14;100290.50;5021008;28;20208;-73
2023/11/26 00:34:50;;;;;;;2.63;2.03;;;;;;;-0.37;94.53;100295.19;5029268;28;20282;-73
2023/11/26 00:37:16;;;;;;;2.50;1.70;;;;;;;-0.38;94.67;100296.22;5037663;28;20705;-74
2023/11/26 00:39:42;;;;;;;3.93;1.80;;;;;;;-0.38;94.55;100305.06;5037900;28;20210;-74
2023/11/26 00:42:09;;;;;;;4.97;1.93;;;;;;;-0.40;94.78;100300.88;5023332;28;20203;-74
2023/11/26 00:44:35;;;;;;;3.10;2.00;;;;;;;-0.39;94.53;100301.66;5029921;28;20215;-74
2023/11/26 00:47:02;;;;;;;4.80;2.20;;;;;;;-0.39;95.33;100309.44;5026750;28;20226;-73
2023/11/26 00:49:28;;;;;;;2.70;1.83;;;;;;;-0.38;95.33;100319.56;5028505;28;20200;-74
2023/11/26 00:51:56;;;;;;;2.13;1.73;;;;;;;-0.37;94.86;100317.75;5023871;28;20201;-73
2023/11/26 00:54:22;;;;;;;3.23;1.97;;;;;;;-0.38;95.10;100324.75;5041675;28;20200;-74
2023/11/26 00:56:48;;;;;;;1.90;1.80;;;;;;;-0.36;95.09;100321.91;5024079;28;20235;-73
2023/11/26 00:59:15;;;;;;;2.70;1.70;;;;;;;-0.36;95.28;100332.28;5044835;28;20319;-74
2023/11/26 01:01:41;;;;;;;3.23;1.83;;;;;;;-0.36;94.91;100321.91;5043588;28;20204;-74
2023/11/26 01:04:08;;;;;;;3.13;1.90;;;;;;;-0.35;95.08;100331.25;5029162;28;20216;-74
2023/11/26 01:06:36;;;;;;;3.57;2.10;;;;;;;-0.32;94.92;100338.50;5027493;28;20227;-74
2023/11/26 01:09:04;;;;;;;2.33;1.50;;;;;;;-0.32;95.39;100343.69;5026684;28;20222;-73
2023/11/26 01:11:31;;;;;;;2.83;1.97;;;;;;;-0.31;95.42;100342.66;5026243;28;20207;-73
2023/11/26 01:13:57;;;;;;;1.60;1.33;;;;;;;-0.30;95.20;100344.97;5024529;28;20214;-74
2023/11/26 01:16:24;;;;;;;3.63;1.80;;;;;;;-0.29;95.23;100354.31;5026023;28;20754;-74
2023/11/26 01:18:50;;;;;;;6.37;1.83;;;;;;;-0.27;95.16;100351.47;5026176;28;20477;-73
2023/11/26 01:21:17;;;;;;;4.17;1.70;;;;;;;-0.25;95.07;100349.41;5042652;28;20219;-73
2023/11/26 01:23:45;;;;;;;2.90;1.70;;;;;;;-0.23;94.99;100355.09;5026296;28;20243;-74
2023/11/26 01:26:13;;;;;;;2.00;1.67;;;;;;;-0.22;95.21;100366.28;5025859;28;20235;-74
2023/11/26 01:28:39;;;;;;;4.60;1.70;;;;;;;-0.20;94.95;100359.78;5036644;28;20442;-74
2023/11/26 01:31:09;;;;;;;4.53;1.50;;;;;;;-0.19;95.06;100359.50;5023395;28;20202;-73
2023/11/26 01:33:35;;;;;;;1.83;1.40;;;;;;;-0.17;94.93;100361.09;5027711;28;20196;-74
2023/11/26 01:36:04;;;;;;;1.53;1.43;;;;;;;-0.16;95.32;100356.41;5020859;28;20739;-73
2023/11/26 01:38:30;;;;;;;2.90;1.80;;;;;;;-0.14;94.83;100359.50;5023696;28;20247;-74
2023/11/26 01:40:58;;;;;;;3.13;1.60;;;;;;;-0.12;94.71;100361.84;5027701;28;20196;-74
2023/11/26 01:43:26;;;;;;;3.03;1.77;;;;;;;-0.11;94.35;100353.81;5025728;28;20190;-74
2023/11/26 01:46:03;;;;;;;2.47;1.63;;;;;;;-0.11;94.69;100343.41;5026524;28;20231;-74
2023/11/26 01:48:29;;;;;;;4.93;1.63;;;;;;;-0.08;94.62;100345.50;5029070;28;20199;-74
2023/11/26 01:50:56;;;;;;;2.33;1.30;;;;;;;-0.07;95.08;100359.25;5036973;28;20592;-74
2023/11/26 01:53:23;;;;;;;2.80;1.60;;;;;;;-0.06;94.60;100360.78;5042076;28;20200;-73
2023/11/26 01:55:50;;;;;;;2.13;1.50;;;;;;;-0.05;94.68;100362.38;5023502;28;20220;-73
2023/11/26 01:58:16;;;;;;;2.03;1.70;;;;;;;-0.04;94.90;100367.28;5025533;28;20262;-74
2023/11/26 02:00:44;;;;;;;1.70;1.50;;;;;;;-0.03;94.64;100365.47;5026793;28;20576;-74
2023/11/26 02:03:11;;;;;;;1.90;1.40;;;;;;;-0.03;94.63;100368.88;5039013;28;20210;-74
2023/11/26 02:05:38;;;;;;;2.83;1.63;;;;;;;-0.02;95.03;100372.22;5026028;28;20227;-73
2023/11/26 02:08:05;;;;;;;2.87;1.70;;;;;;;-0.02;94.60;100374.81;5028883;28;20338;-74
2023/11/26 02:10:32;;;;;;;2.20;1.70;;;;;;;-0.03;94.45;100376.66;5027097;28;20200;-74
2023/11/26 02:13:01;;;;;;;3.93;1.93;;;;;;;-0.05;94.15;100375.34;5044470;28;20338;-74
2023/11/26 02:15:29;;;;;;;1.97;1.40;;;;;;;-0.03;94.16;100378.44;5041205;28;20227;-74
2023/11/26 02:17:56;;;;;;;2.10;1.40;;;;;;;-0.04;93.97;100377.66;5023400;28;20624;-73
2023/11/26 02:20:23;;;;;;;3.00;1.43;;;;;;;-0.03;94.38;100384.44;5027171;28;20191;-73
2023/11/26 02:22:50;;;;;;;4.27;1.70;;;;;;;-0.03;94.43;100381.06;5024195;28;20207;-73
2023/11/26 02:25:20;;;;;;;2.40;1.57;;;;;;;-0.01;94.36;100387.53;5038460;28;20562;-74
2023/11/26 02:27:46;;;;;;;3.20;1.50;;;;;;;0.00;94.48;100386.50;5041543;28;20702;-74
2023/11/26 02:30:13;;;;;;;3.83;1.63;;;;;;;0.00;94.45;100388.31;5042264;28;20200;-74
2023/11/26 02:32:40;;;;;;;2.77;1.47;;;;;;;0.00;94.66;100391.69;5023648;28;20295;-73
2023/11/26 02:35:07;;;;;;;2.70;1.40;;;;;;;0.00;94.83;100389.09;5024002;28;20569;-74
2023/11/26 02:37:34;;;;;;;2.03;1.33;;;;;;;0.01;94.47;100393.22;5041551;28;20204;-74
2023/11/26 02:40:00;;;;;;;1.73;1.50;;;;;;;0.00;94.17;100394.28;5040578;28;20204;-74
2023/11/26 02:42:28;;;;;;;2.13;1.40;;;;;;;0.01;94.13;100400.25;5025667;28;20723;-74
2023/11/26 02:44:54;;;;;;;3.83;1.53;;;;;;;-0.01;93.37;100403.09;5040277;28;20223;-73
2023/11/26 02:47:22;;;;;;;2.50;1.40;;;;;;;0.01;93.05;100408.81;5039054;28;20222;-74
2023/11/26 02:49:48;;;;;;;3.30;1.40;;;;;;;0.01;92.97;100405.44;5024448;28;20239;-73
2023/11/26 02:52:14;;;;;;;1.40;1.10;;;;;;;0.02;93.01;100414.78;5040351;28;20222;-74
2023/11/26 02:54:41;;;;;;;2.53;1.23;;;;;;;0.02;92.57;100412.19;5030490;28;20564;-73
2023/11/26 02:57:07;;;;;;;1.90;1.43;;;;;;;0.02;92.94;100422.56;5040451;28;20220;-74
2023/11/26 02:59:35;;;;;;;2.13;1.30;;;;;;;0.01;92.21;100421.03;5018708;28;20211;-74
2023/11/26 03:02:02;;;;;;;2.50;1.93;;;;;;;0.03;92.12;100417.13;5025343;28;20216;-74
2023/11/26 03:04:29;;;;;;;2.47;1.40;;;;;;;0.02;91.59;100420.75;5031495;28;20369;-73
2023/11/26 03:06:57;;;;;;;2.60;1.50;;;;;;;0.02;91.38;100419.97;5031231;28;20234;-74
2023/11/26 03:12:56;;;;;;;1.37;1.27;;;;;;;0.02;91.99;100422.56;5046449;28;20214;-73
2023/11/26 03:15:20;;;;;;;2.57;1.40;;;;;;;0.00;90.38;100422.81;5004135;28;20208;-73
2023/11/26 03:17:47;;;;;;;1.73;1.20;;;;;;;-0.01;89.03;100426.47;5025161;28;20719;-73
2023/11/26 03:20:17;;;;;;;1.20;1.10;;;;;;;0.00;88.78;100424.66;5025333;28;20204;-73
2023/11/26 03:22:43;;;;;;;2.03;1.30;;;;;;;-0.01;88.61;100436.06;5047280;28;20414;-73
2023/11/26 03:25:10;;;;;;;1.30;1.20;;;;;;;-0.02;89.17;100430.09;5035900;28;20223;-73
2023/11/26 03:27:38;;;;;;;1.27;1.17;;;;;;;0.00;89.65;100440.22;5034063;28;20199;-74
2023/11/26 03:30:07;;;;;;;2.93;1.17;;;;;;;-0.01;89.40;100446.44;5034353;28;20635;-73
2023/11/26 03:32:36;;;;;;;2.67;1.23;;;;;;;-0.02;89.21;100444.88;5034124;28;20204;-73
2023/11/26 03:35:02;;;;;;;1.70;1.20;;;;;;;-0.03;89.64;100453.72;5027258;28;20203;-73
2023/11/26 03:37:29;;;;;;;1.27;1.17;;;;;;;-0.05;88.93;100466.19;5046000;28;20207;-73
2023/11/26 03:39:55;;;;;;;1.20;1.10;;;;;;;-0.05;89.07;100461.75;5049613;28;20212;-74
2023/11/26 03:42:22;;;;;;;1.33;1.20;;;;;;;-0.06;89.33;100464.59;5047635;28;20723;-74
2023/11/26 03:44:48;;;;;;;1.57;1.23;;;;;;;-0.06;89.46;100467.19;5023465;28;20200;-74
2023/11/26 03:47:16;;;;;;;2.40;1.27;;;;;;;-0.08;87.80;100464.88;5050618;28;20223;-74
2023/11/26 03:49:44;;;;;;;1.90;1.40;;;;;;;-0.07;88.25;100481.22;5031970;28;20575;-73
2023/11/26 03:52:10;;;;;;;3.00;1.40;;;;;;;-0.08;88.07;100482.25;5047896;28;20204;-73
2023/11/26 03:54:36;;;;;;;2.10;1.10;;;;;;;-0.08;88.37;100490.03;5050107;28;20318;-73
2023/11/26 03:57:03;;;;;;;2.30;1.37;;;;;;;-0.08;88.19;100488.25;5027591;28;20216;-73
2023/11/26 03:59:29;;;;;;;1.40;1.10;;;;;;;-0.08;89.05;100497.81;5032372;28;20200;-74
2023/11/26 04:01:55;;;;;;;1.80;1.13;;;;;;;-0.10;87.75;100500.66;5028874;28;20200;-74
2023/11/26 04:04:22;;;;;;;1.30;1.20;;;;;;;-0.09;87.77;100498.88;5030082;28;20553;-73
2023/11/26 04:06:49;;;;;;;1.37;1.13;;;;;;;-0.09;87.86;100491.09;5033146;28;20235;-73
2023/11/26 04:09:18;;;;;;;2.47;1.40;;;;;;;-0.11;88.54;100493.94;5028859;28;20231;-74
2023/11/26 04:11:44;;;;;;;2.80;1.23;;;;;;;-0.11;88.16;100501.72;5033042;28;20710;-74
2023/11/26 04:14:12;;;;;;;2.20;1.10;;;;;;;-0.12;88.35;100496.78;5033691;28;20203;-74
2023/11/26 04:16:48;;;;;;;2.33;1.40;;;;;;;-0.12;89.21;100500.16;5026230;28;20223;-74
2023/11/26 04:19:15;;;;;;;1.33;1.17;;;;;;;-0.12;89.65;100500.16;5031144;28;20652;-73
2023/11/26 04:21:43;;;;;;;2.90;1.20;;;;;;;-0.14;89.92;100507.41;5026204;28;20199;-73
2023/11/26 04:24:12;;;;;;;1.13;1.03;;;;;;;-0.16;89.53;100512.09;5027339;28;20571;-74
2023/11/26 04:26:38;;;;;;;1.97;1.13;;;;;;;-0.16;90.37;100511.28;5042355;28;20215;-74
2023/11/26 04:29:04;;;;;;;1.90;1.20;;;;;;;-0.20;90.16;100505.84;5025543;28;20200;-74
2023/11/26 04:31:31;;;;;;;2.03;0.90;;;;;;;-0.22;89.72;100511.56;5043232;28;20211;-74
2023/11/26 04:33:58;;;;;;;1.30;1.17;;;;;;;-0.26;89.78;100512.06;5027176;28;20612;-74
2023/11/26 04:36:24;;;;;;;1.53;1.43;;;;;;;-0.31;89.54;100513.88;5028277;28;20213;-74
2023/11/26 04:38:51;;;;;;;1.10;1.00;;;;;;;-0.33;89.56;100512.56;5024446;28;20580;-73
2023/11/26 04:41:18;;;;;;;1.47;1.23;;;;;;;-0.40;89.56;100518.00;5032629;28;20204;-74
2023/11/26 04:43:45;;;;;;;1.80;1.33;;;;;;;-0.47;89.07;100522.63;5026069;28;20555;-74
2023/11/26 04:46:11;;;;;;;1.33;0.97;;;;;;;-0.52;89.55;100520.00;5030053;28;20255;-74
2023/11/26 04:48:38;;;;;;;1.23;1.13;;;;;;;-0.57;89.26;100521.81;5026768;28;20200;-74
2023/11/26 04:51:06;;;;;;;1.50;1.20;;;;;;;-0.65;89.29;100517.88;5025351;28;20200;-74
2023/11/26 04:53:32;;;;;;;1.77;1.20;;;;;;;-0.69;89.60;100526.44;5030860;28;20538;-73
2023/11/26 04:55:59;;;;;;;1.83;1.00;;;;;;;-0.74;89.97;100534.94;5031142;28;20216;-73
2023/11/26 04:58:27;;;;;;;1.63;1.20;;;;;;;-0.82;90.17;100527.66;5027684;28;20212;-74
2023/11/26 05:00:53;;;;;;;2.80;1.30;;;;;;;-0.87;90.72;100528.41;5031932;28;20196;-74
2023/11/26 05:03:22;;;;;;;2.30;1.30;;;;;;;-0.92;90.85;100530.97;5047067;28;20199;-73
2023/11/26 05:05:48;;;;;;;1.57;1.30;;;;;;;-0.97;91.40;100533.53;5047833;28;20877;-73
2023/11/26 05:08:15;;;;;;;1.57;1.10;;;;;;;-1.02;91.96;100529.34;5031278;28;20196;-74
2023/11/26 05:10:41;;;;;;;1.63;1.17;;;;;;;-1.07;92.50;100532.72;5024570;28;20203;-74
2023/11/26 05:13:07;;;;;;;3.83;1.70;;;;;;;-1.14;92.88;100531.38;5026693;28;20279;-74
2023/11/26 05:15:36;;;;;;;1.97;1.60;;;;;;;-1.21;92.70;100534.16;5032070;28;20224;-74
2023/11/26 05:18:02;;;;;;;1.77;1.50;;;;;;;-1.26;93.16;100538.56;5029232;28;20191;-74
2023/11/26 05:20:28;;;;;;;1.70;1.30;;;;;;;-1.28;94.16;100543.19;5030477;28;20204;-74
2023/11/26 05:22:56;;;;;;;1.50;1.40;;;;;;;-1.34;95.00;100539.00;5031373;28;20211;-74
2023/11/26 05:25:24;;;;;;;1.83;1.37;;;;;;;-1.41;94.71;100544.38;5045681;28;20243;-74
2023/11/26 05:27:50;;;;;;;1.60;1.43;;;;;;;-1.48;94.32;100541.22;5031406;28;20203;-74
2023/11/26 05:30:17;;;;;;;2.10;1.83;;;;;;;-1.52;95.02;100544.56;5031073;28;20210;-74
2023/11/26 05:32:44;;;;;;;3.37;1.87;;;;;;;-1.55;95.56;100542.47;5023232;28;20650;-74
2023/11/26 05:35:13;;;;;;;2.67;1.80;;;;;;;-1.58;96.56;100555.88;5025719;28;20206;-73
2023/11/26 05:37:40;;;;;;;2.00;1.70;;;;;;;-1.62;97.06;100560.78;5025270;28;20199;-74
2023/11/26 05:40:09;;;;;;;2.10;1.87;;;;;;;-1.67;97.41;100558.13;5028156;28;20254;-74
2023/11/26 05:42:35;;;;;;;2.10;1.53;;;;;;;-1.72;97.65;100565.09;5026604;28;20664;-74
2023/11/26 05:45:02;;;;;;;2.23;1.60;;;;;;;-1.74;98.75;100567.91;5027878;28;20565;-74
2023/11/26 05:47:28;;;;;;;2.40;1.83;;;;;;;-1.75;99.77;100574.13;5021901;28;20209;-74
2023/11/26 05:49:56;;;;;;;3.60;1.70;;;;;;;-1.78;100.00;100572.03;5022841;28;20192;-74
2023/11/26 05:52:22;;;;;;;3.90;1.70;;;;;;;-1.80;100.00;100578.47;5032597;28;20196;-74
2023/11/26 05:54:49;;;;;;;3.47;2.27;;;;;;;-1.85;100.00;100571.44;5030660;28;20196;-74
2023/11/26 05:57:15;;;;;;;2.97;1.87;;;;;;;-1.88;100.00;100574.50;5030503;28;20291;-74
2023/11/26 05:59:41;;;;;;;2.10;1.67;;;;;;;-1.91;100.00;100575.00;5030179;28;20219;-74
2023/11/26 06:02:10;;;;;;;3.23;1.80;;;;;;;-1.90;100.00;100583.53;5030823;28;20576;-73
2023/11/26 06:04:37;;;;;;;2.67;2.03;;;;;;;-1.96;100.00;100582.72;5021440;28;20206;-74
2023/11/26 06:07:05;;;;;;;2.17;1.70;;;;;;;-1.96;100.00;100589.69;5040953;28;20231;-73
2023/11/26 06:09:31;;;;;;;2.87;1.80;;;;;;;-2.04;100.00;100588.31;5022162;28;20200;-73
2023/11/26 06:11:58;;;;;;;3.20;2.17;;;;;;;-2.07;100.00;100593.19;5029184;28;20509;-76
2023/11/26 06:14:24;;;;;;;2.40;2.00;;;;;;;-2.07;100.00;100590.59;5040393;28;20246;-76
2023/11/26 06:16:50;;;;;;;3.63;2.20;;;;;;;-2.12;100.00;100595.72;5029287;28;20216;-76
2023/11/26 06:19:17;;;;;;;2.10;1.90;;;;;;;-2.16;100.00;100600.59;5036937;28;20581;-73
2023/11/26 06:21:43;;;;;;;5.33;2.80;;;;;;;-2.19;100.00;100598.47;5032936;28;20938;-74
2023/11/26 06:24:12;;;;;;;3.33;2.10;;;;;;;-2.18;100.00;100601.88;5035985;28;21000;-74
2023/11/26 06:26:40;;;;;;;2.83;2.13;;;;;;;-2.20;100.00;100603.91;5025765;28;20564;-74
2023/11/26 06:29:07;;;;;;;4.30;2.70;;;;;;;-2.22;100.00;100603.38;5021403;28;20203;-73
2023/11/26 06:31:34;;;;;;;3.13;2.70;;;;;;;-2.20;100.00;100606.47;5028302;28;20497;-74
2023/11/26 06:34:01;;;;;;;3.27;2.60;;;;;;;-2.20;100.00;100614.25;5026617;28;20676;-76
2023/11/26 06:36:28;;;;;;;2.93;2.40;;;;;;;-2.25;100.00;100614.97;5027139;28;20594;-74
2023/11/26 06:38:55;;;;;;;5.90;2.73;;;;;;;-2.21;100.00;100607.50;5020767;28;20456;-75
2023/11/26 06:41:25;;;;;;;4.27;2.17;;;;;;;-2.19;100.00;100608.84;5038966;28;21005;-74
2023/11/26 06:43:53;;;;;;;4.00;2.57;;;;;;;-2.16;100.00;100605.78;5030778;28;20808;-73
2023/11/26 06:46:20;;;;;;;4.20;2.43;;;;;;;-2.18;100.00;100605.22;5030011;28;20486;-74
2023/11/26 06:48:46;;;;;;;3.37;2.53;;;;;;;-2.17;100.00;100611.19;5024342;28;20445;-74
2023/11/26 06:51:13;;;;;;;3.30;2.47;;;;;;;-2.15;100.00;100614.31;5015683;28;20820;-74
2023/11/26 06:53:40;;;;;;;4.13;3.00;;;;;;;-2.12;100.00;100608.66;5023882;28;20438;-74
2023/11/26 06:56:07;;;;;;;4.43;2.47;;;;;;;-2.08;100.00;100612.34;5028450;28;20462;-73
2023/11/26 06:58:36;;;;;;;3.77;2.87;;;;;;;-2.02;100.00;100621.72;5027865;28;20501;-74
2023/11/26 07:01:03;;;;;;;3.63;2.50;;;;;;;-1.97;100.00;100619.19;5026335;28;20668;-73
2023/11/26 07:03:29;;;;;;;3.73;2.70;;;;;;;-1.92;100.00;100621.81;5026803;28;20457;-74
2023/11/26 07:05:56;;;;;;;4.17;2.80;;;;;;;-1.85;100.00;100630.97;5033615;28;20715;-73
2023/11/26 07:08:22;;;;;;;4.07;2.57;;;;;;;-1.78;100.00;100628.97;5028595;28;20450;-73
2023/11/26 07:10:48;;;;;;;6.30;2.70;;;;;;;-1.67;100.00;100629.84;5021806;28;20198;-74
2023/11/26 07:13:15;;;;;;;4.40;3.00;;;;;;;-1.60;100.00;100635.59;5027576;28;20540;-74
2023/11/26 07:15:42;;;;;;;4.80;3.20;;;;;;;-1.52;100.00;100640.38;5026538;28;20692;-74
2023/11/26 07:18:09;;;;;;;5.30;2.70;;;;;;;-1.42;100.00;100637.84;5026697;28;20192;-74
2023/11/26 07:20:35;;;;;;;4.63;2.53;;;;;;;-1.36;100.00;100642.81;5028688;28;20196;-74
2023/11/26 07:23:03;;;;;;;4.90;3.20;;;;;;;-1.28;100.00;100644.97;5027499;28;20199;-74
2023/11/26 07:25:30;;;;;;;3.27;2.50;;;;;;;-1.21;100.00;100648.13;5045593;28;20704;-74
2023/11/26 07:27:57;;;;;;;4.20;3.10;;;;;;;-1.15;100.00;100648.97;5039382;28;20561;-74
2023/11/26 07:30:23;;;;;;;6.87;3.10;;;;;;;-1.09;100.00;100653.16;5027851;28;20210;-73
2023/11/26 07:32:51;;;;;;;7.67;3.40;;;;;;;-1.03;100.00;100652.19;5026331;28;20203;-74
2023/11/26 07:35:17;;;;;;;4.23;3.00;;;;;;;-0.96;100.00;100653.53;5026498;28;20713;-74
2023/11/26 07:37:44;;;;;;;4.27;3.30;;;;;;;-0.90;100.00;100657.72;5026299;28;20196;-74
2023/11/26 07:40:12;;;;;;;4.27;2.70;;;;;;;-0.84;100.00;100653.38;5022412;28;20205;-74
2023/11/26 07:42:40;;;;;;;6.67;3.00;;;;;;;-0.79;100.00;100658.59;5026835;28;20607;-74
2023/11/26 07:45:07;;;;;;;6.80;2.80;;;;;;;-0.73;100.00;100663.53;5027869;28;20196;-74
2023/11/26 07:47:33;;;;;;;4.23;2.70;;;;;;;-0.69;100.00;100667.19;5025382;28;20224;-74
2023/11/26 07:50:01;;;;;;;5.27;2.73;;;;;;;-0.63;100.00;100666.19;5025852;28;20203;-74
2023/11/26 07:52:28;;;;;;;8.17;3.47;;;;;;;-0.62;100.00;100662.59;5024613;28;20219;-74
2023/11/26 07:54:54;;;;;;;4.73;3.30;;;;;;;-0.57;100.00;100671.19;5028922;28;20203;-74
2023/11/26 07:57:21;;;;;;;3.90;3.03;;;;;;;-0.50;100.00;100665.78;5043938;28;20223;-73
2023/11/26 07:59:48;;;;;;;8.80;3.03;;;;;;;-0.45;100.00;100671.00;5037720;28;20206;-73
2023/11/26 08:02:14;;;;;;;4.27;2.87;;;;;;;-0.38;100.00;100679.31;5029321;28;20679;-74
2023/11/26 08:04:44;;;;;;;6.17;3.40;;;;;;;-0.35;100.00;100677.00;5032729;28;20208;-74
2023/11/26 08:07:11;;;;;;;5.83;3.57;;;;;;;-0.30;100.00;100684.81;5030615;28;20230;-74
2023/11/26 08:09:38;;;;;;;5.63;3.23;;;;;;;-0.25;100.00;100689.28;5032518;28;20215;-74
2023/11/26 08:12:10;;;;;;;3.07;2.43;;;;;;;-0.20;100.00;100682.28;5029088;28;20204;-74
2023/11/26 08:14:36;;;;;;;4.70;3.13;;;;;;;-0.15;100.00;100687.50;5028273;28;20200;-74
2023/11/26 08:17:05;;;;;;;7.57;3.07;;;;;;;-0.12;100.00;100686.22;5024971;28;20585;-74
2023/11/26 08:19:31;;;;;;;8.03;3.20;;;;;;;-0.07;100.00;100688.81;5025986;28;20208;-74
2023/11/26 08:21:57;;;;;;;9.93;5.10;;;;;;;-0.06;100.00;100686.00;5025174;28;20200;-74
2023/11/26 08:24:26;;;;;;;7.60;3.80;;;;;;;-0.01;100.00;100688.59;5027161;28;20203;-73
2023/11/26 08:26:54;;;;;;;9.50;4.87;;;;;;;0.04;100.00;100683.44;5028231;28;20220;-74
2023/11/26 08:29:21;;;;;;;5.00;3.07;;;;;;;0.08;100.00;100687.09;5024381;28;20286;-74
2023/11/26 08:31:48;;;;;;;5.20;3.47;;;;;;;0.14;100.00;100693.06;5027497;28;20211;-73
2023/11/26 08:34:15;;;;;;;5.57;3.67;;;;;;;0.17;100.00;100698.53;5025691;28;20204;-74
2023/11/26 08:36:42;;;;;;;5.90;4.23;;;;;;;0.23;100.00;100699.34;5027065;28;20322;-73
2023/11/26 08:39:17;;;;;;;5.90;4.23;;;;;;;0.28;100.00;100701.97;5026449;28;20542;-74
2023/11/26 08:41:45;;;;;;;4.73;3.50;;;;;;;0.30;100.00;100707.66;5024115;28;20199;-74
2023/11/26 08:44:12;;;;;;;7.27;4.03;;;;;;;0.34;99.99;100704.31;5028014;28;20212;-73
2023/11/26 08:46:41;;;;;;;5.50;3.40;;;;;;;0.38;99.55;100704.59;5029777;28;20273;-73
2023/11/26 08:49:08;;;;;;;7.70;3.57;;;;;;;0.40;98.95;100700.72;5029446;28;20564;-74
2023/11/26 08:51:36;;;;;;;15.53;8.30;;;;;;;0.43;98.69;100710.56;5027285;28;20282;-74
2023/11/26 08:54:03;;;;;;;7.40;4.57;;;;;;;0.46;98.22;100717.88;5025653;28;20220;-74
2023/11/26 08:56:30;;;;;;;6.27;4.53;;;;;;;0.52;97.73;100718.66;5025285;28;20212;-73
2023/11/26 08:58:57;;;;;;;7.57;3.50;;;;;;;0.57;97.85;100713.50;5028479;28;20684;-74
2023/11/26 09:01:24;;;;;;;8.47;3.80;;;;;;;0.64;97.97;100721.81;5021578;28;20212;-74
2023/11/26 09:03:50;;;;;;;6.17;3.87;;;;;;;0.68;98.19;100715.84;5025694;28;20697;-74
2023/11/26 09:06:18;;;;;;;6.60;3.73;;;;;;;0.72;97.69;100709.09;5024446;28;20254;-74
2023/11/26 09:08:49;;;;;;;6.00;3.43;;;;;;;0.77;97.18;100711.69;5028253;28;20627;-73
2023/11/26 09:11:15;;;;;;;8.63;4.20;;;;;;;0.80;96.83;100707.81;5031241;28;20537;-74
2023/11/26 09:13:42;;;;;;;6.43;4.30;;;;;;;0.88;96.88;100713.28;5027329;28;20294;-74
2023/11/26 09:16:09;;;;;;;10.03;5.27;;;;;;;0.90;96.08;100716.38;5023682;28;20223;-74
2023/11/26 09:18:37;;;;;;;26.27;13.43;;;;;;;0.92;94.82;100716.13;5031326;28;20556;-74
2023/11/26 09:21:03;;;;;;;14.97;9.37;;;;;;;0.95;94.14;100705.22;5029785;28;20227;-73
2023/11/26 09:23:32;;;;;;;14.00;7.00;;;;;;;0.97;94.30;100714.31;5025641;28;20202;-73
2023/11/26 09:25:59;;;;;;;5.80;3.90;;;;;;;1.01;93.55;100711.97;5025185;28;20298;-74
2023/11/26 09:28:26;;;;;;;4.80;3.50;;;;;;;1.05;93.75;100711.19;5030344;28;20648;-73
2023/11/26 09:30:52;;;;;;;6.13;3.53;;;;;;;1.10;94.52;100713.81;5025990;28;20202;-73
2023/11/26 09:33:22;;;;;;;5.70;3.60;;;;;;;1.17;93.12;100716.94;5024517;28;20200;-73
2023/11/26 09:35:48;;;;;;;4.37;3.50;;;;;;;1.22;92.94;100703.94;5026570;28;20277;-74
2023/11/26 09:38:15;;;;;;;5.23;3.57;;;;;;;1.30;92.58;100711.22;5023410;28;20731;-74
2023/11/26 09:40:41;;;;;;;10.23;3.20;;;;;;;1.37;91.67;100705.75;5021688;28;20278;-74
2023/11/26 09:43:08;;;;;;;5.07;3.50;;;;;;;1.45;91.85;100703.41;5034416;28;20312;-73
2023/11/26 09:45:34;;;;;;;4.83;3.43;;;;;;;1.55;91.74;100705.97;5025496;28;20730;-73
2023/11/26 09:48:01;;;;;;;5.33;3.43;;;;;;;1.63;90.49;100702.06;5025323;28;20211;-73
2023/11/26 09:50:29;;;;;;;5.67;3.53;;;;;;;1.70;90.04;100699.97;5022151;28;20688;-74
2023/11/26 09:52:56;;;;;;;4.00;2.77;;;;;;;1.80;90.15;100700.72;5021467;28;20208;-74
2023/11/26 09:55:23;;;;;;;2.83;2.43;;;;;;;1.85;89.06;100705.13;5025977;28;20211;-73
2023/11/26 09:57:49;;;;;;;4.20;2.70;;;;;;;1.86;88.26;100702.28;5024645;28;20266;-73
2023/11/26 10:00:16;;;;;;;4.27;2.87;;;;;;;1.93;88.63;100699.41;5023920;28;20338;-74
2023/11/26 10:02:42;;;;;;;3.87;2.83;;;;;;;1.95;88.12;100695.47;5019752;28;20215;-73
2023/11/26 10:05:22;;;;;;;3.73;2.80;;;;;;;1.97;87.96;100700.44;5025100;28;20211;-73
2023/11/26 10:07:52;;;;;;;4.80;2.50;;;;;;;2.02;88.50;100695.97;5022032;28;20212;-74
2023/11/26 10:10:20;;;;;;;4.13;2.63;;;;;;;2.02;87.44;100701.19;5020876;28;20218;-73
2023/11/26 10:12:52;;;;;;;3.30;2.40;;;;;;;1.99;88.73;100701.72;5022249;28;20211;-73
2023/11/26 10:15:20;;;;;;;3.20;2.40;;;;;;;2.00;86.75;100690.25;5024962;28;20200;-73
2023/11/26 10:18:03;;;;;;;3.53;2.00;;;;;;;1.97;86.90;100701.19;5036841;28;20207;-73
2023/11/26 10:20:30;;;;;;;5.17;2.63;;;;;;;1.94;86.77;100706.16;5025299;28;20561;-73
2023/11/26 10:22:57;;;;;;;4.20;2.80;;;;;;;1.97;85.41;100697.81;5021126;28;20570;-73
2023/11/26 10:25:25;;;;;;;6.23;5.00;;;;;;;1.98;85.45;100705.34;5025147;28;20219;-73
2023/11/26 10:27:51;;;;;;;4.67;4.10;;;;;;;1.98;85.13;100704.59;5026371;28;20278;-73
2023/11/26 10:30:27;;;;;;;6.50;4.23;;;;;;;2.05;86.26;100710.28;5019439;28;20192;-73
2023/11/26 10:33:03;;;;;;;4.53;3.20;;;;;;;2.07;85.41;100708.22;5021667;28;20648;-73
2023/11/26 10:35:46;;;;;;;4.87;3.47;;;;;;;2.15;85.18;100716.25;5027776;28;20219;-73
2023/11/26 10:38:14;;;;;;;4.53;3.63;;;;;;;2.23;85.54;100707.88;5020983;28;20237;-73
2023/11/26 10:40:41;;;;;;;3.87;2.43;;;;;;;2.30;86.16;100710.19;5022901;28;20247;-73
2023/11/26 10:43:09;;;;;;;4.97;2.73;;;;;;;2.33;83.64;100704.47;5022810;28;20568;-73
2023/11/26 10:45:37;;;;;;;2.90;1.93;;;;;;;2.30;80.75;100710.19;5020377;28;20227;-73
2023/11/26 10:48:09;;;;;;;2.40;1.87;;;;;;;2.27;79.76;100713.31;5022026;28;20639;-73
2023/11/26 10:50:41;;;;;;;3.13;1.60;;;;;;;2.26;80.81;100717.75;5022499;28;20192;-72
2023/11/26 10:53:22;;;;;;;2.67;1.77;;;;;;;2.24;78.72;100714.63;5022028;28;20203;-73
2023/11/26 10:55:50;;;;;;;2.40;1.90;;;;;;;2.23;79.46;100710.47;5023399;28;20716;-73
2023/11/26 10:58:18;;;;;;;2.87;1.83;;;;;;;2.23;79.38;100710.47;5019980;28;20196;-73
2023/11/26 11:00:49;;;;;;;2.10;1.80;;;;;;;2.24;79.29;100712.03;5021150;28;20315;-73
2023/11/26 11:03:15;;;;;;;3.03;1.50;;;;;;;2.25;79.22;100715.41;5022948;28;20198;-73
2023/11/26 11:05:42;;;;;;;1.90;1.63;;;;;;;2.22;80.14;100714.13;5020544;28;20226;-74
2023/11/26 11:08:09;;;;;;;3.53;1.93;;;;;;;2.23;78.07;100707.09;5023675;28;20211;-73
2023/11/26 11:10:45;;;;;;;3.23;1.70;;;;;;;2.25;78.61;100708.41;5026581;28;20211;-73
2023/11/26 11:13:14;;;;;;;3.63;2.10;;;;;;;2.23;80.99;100709.72;5023043;28;20187;-73
2023/11/26 11:15:41;;;;;;;1.77;1.63;;;;;;;2.17;77.32;100701.13;5022801;28;20211;-73
2023/11/26 11:18:42;;;;;;;3.53;1.90;;;;;;;2.09;78.98;100712.09;5023654;28;20188;-73
2023/11/26 11:21:10;;;;;;;2.00;1.70;;;;;;;2.06;77.12;100709.22;5023209;28;20195;-72
2023/11/26 11:23:39;;;;;;;1.73;1.37;;;;;;;2.04;78.30;100711.34;5023794;28;20609;-73
2023/11/26 11:26:08;;;;;;;3.93;2.87;;;;;;;2.05;78.30;100718.88;5024068;28;20624;-73
2023/11/26 11:28:40;;;;;;;4.30;1.60;;;;;;;1.99;76.24;100704.31;5023800;28;20708;-73
2023/11/26 11:31:08;;;;;;;1.33;1.23;;;;;;;1.93;77.57;100710.56;5032628;28;20195;-73